Dawson Community Airport

About
Name: Dawson Community Airport
Identifier:  GDV/KGDV
Serves:  Glendive, Montana
Owner:  Dawson County
Public/Private:  Public
Local Time:  15. Sep 07:54 MDT
Description: Dawson Community Airport is five miles northwest of Glendive, in Dawson County, Montana. The airport has one airline, subsidized by the Essential Air Service program.
Source: Wikipedia
Location
Runways
Identifier Length (m/ft) Surface
12/30 5,704/5,704 Asphalt
2/20 3,002/3,002 Asphalt
Statistics
Flights per Day:
2 flights
Distance: 289km (179mi)
Flights delayed:
95% (0 flights per day delayed)
Delay Average: 1431 minutes
Current Weather
 11 C (Humidity: 81%)
  0kt (0km/h / 0mph) from 0°
  16km (10 mi.)
 
 METAR KGDV 151256Z AUTO 00000KT 10SM CLR 11/08 A2987 RMK AO2 SLP110 T01060083

Current Flights

Arrivals
Number Arrival From Airline
Landed 9K1755 19:37  Billings  Cape Air
On time 9K1751 12:42  Billings  Cape Air
On time 9K1755 19:37  Billings  Cape Air

Current Delays

Departures
N/A
Arrivals
N/A

Destinations

Top Destinations
Airport Flights
per week
Seats
per week
  Billings (BIL) 10 - 1 0
  Miles City (MLS) 2 - 0 0
  Sidney (SDY) 0 - 0 0

Airlines & Planes

Top Airlines
Airline Flights
per Day
Seats
per Day
  Cape Air 1 -
Alpine Air Express 0 -
Top Plane Types
Model Flights Seats
Cessna C402 1.5/day - 0
Beech C-99 Airliner 0.3/day - 0